Airfield :
LOGIN :

Register | Disclaimer

   EN    FR    IT 

 










Legend :    VFR   Marginal VFR   IFR   Intensive IFR   Very Intensive IFR
Visi :
Ceiling :
>= 8 km
>= 3000ft
5 to 8 km
1000 to 3000 ft
1500m to 5 km
500 to 1000 ft
800 to 1500m
200 to 500 ft
< 800m
< 200 ft
Symbols :   Thunderstorms  Fog  Heavy snow  Heavy precipitations  Wind > 20 kt
SIGMETs :     Misc.  Thunderstorms  Icing  Turbulence  Mountain Waves  Volcanic Ashes






- Airport Elevation : 640 ft
- IATA code : AOC


EDAC - Altenburg-Nobitz

CURRENT METAR :
  • 171820Z AUTO 20009KT 9999 // OVC160/// 07/03 Q1016

EXPIRED METARs :
  • 171750Z AUTO 21011KT 9999 // OVC150/// 07/03 Q1015
  • 171720Z AUTO 22011KT 9999 // OVC150/// 07/03 Q1015
  • 171650Z 21011KT 9999 FEW020 08/03 Q1015
  • 171620Z 21013KT 9999 FEW020 08/03 Q1015
  • 171550Z 21016KT 9999 FEW020 08/03 Q1015

TAF TAF EDAC
Valid from the 17 at 18:00 until the 18 at 03:00 UTC


171700Z 1718/1803 21010KT CAVOK
PROB30
TEMPO 1720/1801 23020G35KT SHRA BKN014 SCT020CB
BECMG 1721/1723 24015G25KT



MET'MAP, your aeronautical weather chart ! - Copyright ORBIFLY December 2007 - Disclaimer

ORBIFLY MET'MAP TEAM :

Programming & Development : Alexandra Zaïnal
Concept & original design : Baudouin d'Aumeries
Assistance for programming : Marc-Olivier Méhu
Technical & hardware support : Manuel Goepfert

Contact : metmap@orbifly.com




SOURCES & CREDITS :

   NOAA